KSVH

Details ICAO KSVH (SVH)
Name Statesville Rgnl
Region United States
Timezone America/New_York (UTC-4.0)
Plans Departing 20
Arriving 8
Stats Elevation 965 ft / 294 m (AMSL)
Location 35.764996° -80.953896°
Runways 1
Magnetic Variation 7.800° W
Sunrise 2018-05-27 10:12:31 UTC / 2018-05-27 06:12:31 Local
Sunset 2018-05-28 00:32:21 UTC / 2018-05-27 20:32:21 Local
Advertisement - Login to hide

Runways

ID Width Length Bearing (true) Bearing (mag) Surface Threshold Offset Overrun Length
10 98 ft / 30 m 6,993 ft / 2,131 m 96.86° 104.66° Asphalt 1,001 ft / 305 m 0 ft / 0 m
28 98 ft / 30 m 6,993 ft / 2,131 m 276.88° 284.68° Asphalt 551 ft / 168 m 0 ft / 0 m

Approach Navaids

Runway Type Ident Frequency Range Bearing (true) Bearing (mag) Slope Elevation
28 Localiser ISVH 111.75 MHz 18 nm / 33 km 276.86° 284.66° - 932 ft / 284 m (AMSL)
28 Glidescope ISVH 111.75 MHz 10 nm / 19 km 276.87° 284.67° 3.00° 956 ft / 291 m (AMSL)
28 DME ISVH 111.75 MHz 18 nm / 33 km - - - 924 ft / 282 m (AMSL)

Map

Weather


0- 5 10 15 20 25 30 35+ Temperature / ° C

Clouds and Precipitation
Forecast for 2018-05-27 06:00 UTC. Updated an hour ago

Ground ~20,000 ft ~40,000 ft Winds

METAR

KSVH 270555Z AUTO 00000KT 4SM BR SCT021 SCT029 SCT039 19/19 A2995 RMK AO2 60002 T01930185

TAF

Not found

Frequencies

Recorded 119.22 MHz AWOS 3
Unicom 123.07 MHz CTAF
Warning: Do not use this data for real-world aviation or navigation. No guarantee of current accuracy is given.